Time;durP1;ratioP1;P1;durP2;ratioP2;P2;SDS_P1;SDS_P2;PMS_P1;PMS_P2;Temp;Humidity;BMP_temperature;BMP_pressure;BME280_temperature;BME280_humidity;BME280_pressure;Samples;Min_cycle;Max_cycle;Signal;HPM_P1;HPM_P2
2022/07/29 00:00:52;;;;;;;4.20;2.10;;;20.00;99.90;;;;;;4932442;29;20031;-84
2022/07/29 00:03:18;;;;;;;2.88;1.63;;;19.90;99.90;;;;;;4934542;29;20032;-84
2022/07/29 00:05:44;;;;;;;2.30;1.33;;;19.90;99.90;;;;;;4935453;28;20031;-84
2022/07/29 00:08:10;;;;;;;4.38;1.70;;;19.90;99.90;;;;;;4934127;29;20615;-84
2022/07/29 00:10:35;;;;;;;3.25;1.50;;;19.90;99.90;;;;;;4932938;29;20547;-84
2022/07/29 00:13:02;;;;;;;3.83;2.00;;;20.00;99.90;;;;;;4934953;29;20039;-84
2022/07/29 00:15:28;;;;;;;3.10;1.80;;;20.00;99.90;;;;;;4933000;29;20031;-85
2022/07/29 00:17:53;;;;;;;4.60;2.25;;;19.90;99.90;;;;;;4933538;29;20028;-84
2022/07/29 00:20:19;;;;;;;4.28;1.70;;;19.90;99.90;;;;;;4935383;29;20042;-84
2022/07/29 00:22:45;;;;;;;3.67;1.95;;;19.90;99.90;;;;;;4935120;29;20028;-84
2022/07/29 00:25:12;;;;;;;3.65;1.95;;;20.00;99.90;;;;;;4932685;29;20079;-84
2022/07/29 00:27:38;;;;;;;3.20;2.05;;;19.90;99.90;;;;;;4936380;29;20050;-84
2022/07/29 00:30:05;;;;;;;3.67;1.90;;;19.80;99.90;;;;;;4931864;29;20040;-84
2022/07/29 00:32:30;;;;;;;3.83;1.85;;;19.80;99.90;;;;;;4934857;29;20032;-84
2022/07/29 00:37:40;;;;;;;4.13;1.83;;;19.70;99.90;;;;;;4933380;29;20043;-84
2022/07/29 00:40:06;;;;;;;3.88;1.77;;;19.70;99.90;;;;;;4935548;29;20028;-84
2022/07/29 00:42:45;;;;;;;4.10;1.95;;;19.60;99.90;;;;;;4934598;29;20110;-84
2022/07/29 00:45:11;;;;;;;2.42;1.40;;;19.70;99.90;;;;;;4933703;29;20556;-85
2022/07/29 00:47:37;;;;;;;3.17;1.70;;;19.70;99.90;;;;;;4934719;29;20130;-84
2022/07/29 00:50:05;;;;;;;3.33;1.65;;;19.70;99.90;;;;;;4935735;29;20108;-84
2022/07/29 00:52:31;;;;;;;3.13;1.52;;;19.70;99.90;;;;;;4931813;29;20161;-84
2022/07/29 00:54:57;;;;;;;4.15;1.63;;;19.60;99.90;;;;;;4935921;29;20060;-84
2022/07/29 00:57:22;;;;;;;3.25;1.67;;;19.60;99.90;;;;;;4934104;29;20119;-84
2022/07/29 00:59:48;;;;;;;3.53;1.75;;;19.60;99.90;;;;;;4937172;29;20032;-85
2022/07/29 01:02:14;;;;;;;3.05;1.55;;;19.60;99.90;;;;;;4932752;29;20020;-85
2022/07/29 01:04:40;;;;;;;4.10;1.77;;;19.50;99.90;;;;;;4934747;29;20056;-85
2022/07/29 01:07:07;;;;;;;3.10;1.73;;;19.50;99.90;;;;;;5003585;23;20125;-84
2022/07/29 01:09:33;;;;;;;3.95;1.73;;;19.40;99.90;;;;;;4981325;28;20046;-85
2022/07/29 01:12:01;;;;;;;3.28;1.67;;;19.40;99.90;;;;;;5001042;28;20034;-84
2022/07/29 01:14:28;;;;;;;2.60;1.50;;;19.30;99.90;;;;;;4997682;28;20026;-84
2022/07/29 01:17:07;;;;;;;3.38;1.90;;;19.30;99.90;;;;;;4999945;28;20034;-85
2022/07/29 01:19:41;;;;;;;3.10;1.70;;;19.30;99.90;;;;;;4987375;28;20026;-84
2022/07/29 01:22:35;;;;;;;3.20;1.83;;;19.40;99.90;;;;;;5000189;28;20102;-84
2022/07/29 01:25:20;;;;;;;3.40;1.73;;;19.40;99.90;;;;;;4987331;28;20049;-84
2022/07/29 01:28:37;;;;;;;3.75;1.77;;;19.40;99.90;;;;;;5000410;28;20034;-84
2022/07/29 01:31:04;;;;;;;3.65;1.77;;;19.40;99.90;;;;;;4953811;28;20046;-85
2022/07/29 01:33:48;;;;;;;3.15;1.67;;;19.40;99.90;;;;;;4982531;28;20030;-85
2022/07/29 01:36:23;;;;;;;3.72;2.05;;;19.40;99.90;;;;;;4999368;28;20033;-85
2022/07/29 01:38:58;;;;;;;3.88;1.60;;;19.40;99.90;;;;;;4982377;28;20034;-85
2022/07/29 01:41:28;;;;;;;3.88;1.70;;;19.40;99.90;;;;;;5003266;28;20021;-85
2022/07/29 01:43:59;;;;;;;3.50;1.40;;;19.40;99.90;;;;;;4996233;28;20105;-84
2022/07/29 01:46:33;;;;;;;3.03;1.58;;;19.40;99.90;;;;;;4983577;28;20029;-84
2022/07/29 01:49:08;;;;;;;2.95;1.45;;;19.30;99.90;;;;;;4983513;28;20065;-84
2022/07/29 01:51:49;;;;;;;3.42;1.88;;;19.20;99.90;;;;;;5000593;28;20041;-84
2022/07/29 01:54:35;;;;;;;3.45;1.80;;;19.20;99.90;;;;;;4981179;28;20026;-85
2022/07/29 01:57:03;;;;;;;3.33;1.80;;;19.20;99.90;;;;;;4998285;28;20026;-84
2022/07/29 01:59:30;;;;;;;4.38;1.95;;;19.10;99.90;;;;;;5001717;28;20023;-85
2022/07/29 02:01:58;;;;;;;3.95;2.15;;;19.10;99.90;;;;;;4998995;28;20395;-84
2022/07/29 02:04:26;;;;;;;3.15;1.63;;;19.00;99.90;;;;;;5001264;28;20015;-85
2022/07/29 02:06:54;;;;;;;2.92;1.25;;;19.00;99.90;;;;;;5006099;28;20031;-84
2022/07/29 02:09:21;;;;;;;4.38;1.52;;;19.00;99.90;;;;;;5006641;28;20674;-85
2022/07/29 02:11:53;;;;;;;3.83;1.65;;;19.00;99.90;;;;;;5004427;28;20026;-84
2022/07/29 02:14:21;;;;;;;2.83;1.50;;;19.00;99.90;;;;;;5004521;28;20022;-84
2022/07/29 02:16:51;;;;;;;4.72;1.30;;;19.00;99.90;;;;;;5001335;28;20026;-84
2022/07/29 02:19:19;;;;;;;3.53;1.27;;;19.00;99.90;;;;;;5001811;28;20084;-85
2022/07/29 02:21:46;;;;;;;3.25;1.48;;;19.00;99.90;;;;;;5005523;28;20098;-84
2022/07/29 02:24:13;;;;;;;2.97;1.42;;;19.00;99.90;;;;;;5005065;28;20031;-84
2022/07/29 02:26:42;;;;;;;2.45;1.23;;;19.00;99.90;;;;;;5003135;28;20030;-85
2022/07/29 02:29:09;;;;;;;3.30;1.40;;;19.00;99.90;;;;;;5005183;28;20029;-84
2022/07/29 02:31:37;;;;;;;2.88;1.30;;;19.00;99.90;;;;;;5002728;28;20045;-84
2022/07/29 02:34:06;;;;;;;2.40;1.13;;;19.00;99.90;;;;;;5003390;28;20026;-85
2022/07/29 02:36:33;;;;;;;2.85;1.30;;;19.00;99.90;;;;;;4999871;28;20094;-84
2022/07/29 02:39:01;;;;;;;2.25;1.20;;;18.90;99.90;;;;;;5006427;28;20022;-83
2022/07/29 02:41:47;;;;;;;3.00;1.48;;;18.90;99.90;;;;;;5003930;28;20270;-85
2022/07/29 02:44:18;;;;;;;3.70;1.23;;;18.90;99.90;;;;;;4989020;28;20022;-84
2022/07/29 02:47:03;;;;;;;3.28;1.38;;;18.90;99.90;;;;;;5004653;28;20029;-85
2022/07/29 02:49:38;;;;;;;4.95;1.23;;;18.90;99.90;;;;;;5002600;28;20030;-85
2022/07/29 02:52:12;;;;;;;2.60;1.17;;;18.90;99.90;;;;;;4986804;28;20625;-85
2022/07/29 02:54:44;;;;;;;2.60;1.23;;;18.80;99.90;;;;;;5003417;28;20064;-84
2022/07/29 02:57:18;;;;;;;3.50;1.40;;;18.70;99.90;;;;;;5004565;28;20030;-84
2022/07/29 02:59:47;;;;;;;2.40;1.02;;;18.70;99.90;;;;;;5003154;28;20029;-85
2022/07/29 03:02:14;;;;;;;2.17;1.15;;;18.70;99.90;;;;;;4981984;28;20034;-84
2022/07/29 03:04:42;;;;;;;2.63;1.33;;;18.70;99.90;;;;;;5004592;28;20026;-84
2022/07/29 03:07:10;;;;;;;2.33;1.30;;;18.70;99.90;;;;;;5005211;28;20068;-84
2022/07/29 03:09:36;;;;;;;4.32;1.48;;;18.70;99.90;;;;;;5002826;28;20023;-85
2022/07/29 03:12:03;;;;;;;2.33;1.15;;;18.70;99.90;;;;;;5004245;28;20038;-85
2022/07/29 03:14:30;;;;;;;3.08;1.23;;;18.70;99.90;;;;;;5002998;28;20461;-84
2022/07/29 03:16:57;;;;;;;3.10;1.20;;;18.80;99.90;;;;;;4983863;28;20022;-84
2022/07/29 03:19:23;;;;;;;3.17;1.52;;;18.70;99.90;;;;;;5003048;28;20046;-84
2022/07/29 03:21:49;;;;;;;2.83;1.52;;;18.60;99.90;;;;;;5002173;28;20056;-84
2022/07/29 03:24:33;;;;;;;2.80;1.30;;;18.70;99.90;;;;;;5003320;28;20031;-84
2022/07/29 03:27:00;;;;;;;2.85;1.15;;;18.70;99.90;;;;;;4984207;28;20040;-84
2022/07/29 03:29:26;;;;;;;3.33;1.60;;;18.70;99.90;;;;;;4981761;28;20022;-84
2022/07/29 03:31:52;;;;;;;2.72;1.35;;;18.70;99.90;;;;;;5001752;28;20058;-84
2022/07/29 03:34:17;;;;;;;3.85;1.58;;;18.70;99.90;;;;;;5002845;28;20049;-83
2022/07/29 03:36:43;;;;;;;4.05;1.52;;;18.70;99.90;;;;;;5002708;28;20026;-84
2022/07/29 03:39:10;;;;;;;3.15;1.50;;;18.70;99.90;;;;;;4984880;28;20033;-84
2022/07/29 03:41:41;;;;;;;3.25;1.50;;;18.60;99.90;;;;;;5004294;28;20426;-84
2022/07/29 03:44:08;;;;;;;3.23;1.40;;;18.70;99.90;;;;;;5005185;28;20096;-84
2022/07/29 03:46:36;;;;;;;2.00;1.10;;;18.70;99.90;;;;;;4981531;28;20052;-83
2022/07/29 03:49:04;;;;;;;2.72;1.27;;;18.70;99.90;;;;;;4997499;28;20037;-84
2022/07/29 03:51:30;;;;;;;2.83;1.60;;;18.60;99.90;;;;;;5001755;28;20027;-83
2022/07/29 03:53:57;;;;;;;2.67;1.27;;;18.70;99.90;;;;;;4980763;28;20034;-83
2022/07/29 03:56:24;;;;;;;2.58;1.45;;;18.60;99.90;;;;;;5002716;28;20061;-83
2022/07/29 03:58:54;;;;;;;2.92;1.17;;;18.60;99.90;;;;;;5001246;28;20404;-83
2022/07/29 04:01:20;;;;;;;2.38;1.27;;;18.50;99.90;;;;;;5000665;28;20029;-83
2022/07/29 04:03:46;;;;;;;2.42;1.00;;;18.40;99.90;;;;;;5001544;28;20027;-83
2022/07/29 04:06:12;;;;;;;4.57;1.50;;;18.50;99.90;;;;;;5000083;28;20030;-83
2022/07/29 04:08:38;;;;;;;3.38;1.30;;;18.50;99.90;;;;;;5001117;28;20030;-83
2022/07/29 04:11:05;;;;;;;2.30;1.15;;;18.40;99.90;;;;;;5001181;28;20034;-84
2022/07/29 04:13:31;;;;;;;2.97;1.40;;;18.50;99.90;;;;;;4984212;28;20449;-84
2022/07/29 04:15:57;;;;;;;3.05;1.40;;;18.50;99.90;;;;;;5002393;28;20038;-84
2022/07/29 04:18:24;;;;;;;2.95;1.30;;;18.50;99.90;;;;;;5002906;28;20034;-83
2022/07/29 04:20:49;;;;;;;2.25;1.30;;;18.60;99.90;;;;;;5003642;28;20025;-83
2022/07/29 04:23:15;;;;;;;3.30;1.30;;;18.60;99.90;;;;;;5002545;28;20026;-84
2022/07/29 04:25:42;;;;;;;2.85;1.20;;;18.60;99.90;;;;;;4985102;28;20038;-83
2022/07/29 04:28:08;;;;;;;2.85;1.40;;;18.60;99.90;;;;;;5002848;28;20037;-84
2022/07/29 04:30:36;;;;;;;2.83;1.27;;;18.60;99.90;;;;;;5000632;28;20517;-83
2022/07/29 04:33:03;;;;;;;3.28;1.38;;;18.60;99.90;;;;;;5000937;28;20069;-84
2022/07/29 04:35:29;;;;;;;2.47;1.27;;;18.60;99.90;;;;;;4998273;28;20101;-84
2022/07/29 04:37:55;;;;;;;2.70;1.17;;;18.60;99.90;;;;;;4997111;28;20027;-84
2022/07/29 04:40:21;;;;;;;2.58;1.25;;;18.70;99.90;;;;;;4997118;28;20080;-83
2022/07/29 04:42:46;;;;;;;4.22;1.27;;;18.70;99.90;;;;;;4983992;28;20034;-83
2022/07/29 04:45:12;;;;;;;2.40;1.20;;;18.70;99.90;;;;;;5000447;28;20030;-84
2022/07/29 04:47:38;;;;;;;2.42;1.10;;;18.70;99.90;;;;;;4999526;28;20027;-84
2022/07/29 04:50:05;;;;;;;2.67;1.30;;;18.80;99.90;;;;;;4983156;28;20058;-85
2022/07/29 04:52:30;;;;;;;2.60;1.33;;;18.80;99.90;;;;;;4983504;28;20537;-84
2022/07/29 04:54:56;;;;;;;2.35;1.10;;;18.90;99.90;;;;;;4983902;28;20033;-84
2022/07/29 04:57:21;;;;;;;3.78;1.67;;;19.00;99.90;;;;;;5002717;28;20053;-84
2022/07/29 04:59:48;;;;;;;2.17;1.17;;;19.00;99.90;;;;;;5002740;28;20038;-83
2022/07/29 05:02:14;;;;;;;3.33;1.27;;;19.10;99.90;;;;;;4984179;28;20066;-83
2022/07/29 05:04:39;;;;;;;2.45;1.10;;;19.10;99.90;;;;;;4983317;28;20046;-82
2022/07/29 05:07:05;;;;;;;2.22;1.20;;;19.10;99.90;;;;;;5002492;28;20062;-84
2022/07/29 05:09:32;;;;;;;2.40;1.10;;;19.20;99.90;;;;;;4981878;28;20034;-84
2022/07/29 05:11:57;;;;;;;2.10;1.10;;;19.30;99.90;;;;;;5005324;28;20022;-84
2022/07/29 05:14:23;;;;;;;3.35;1.30;;;19.40;99.90;;;;;;4999946;28;20033;-84
2022/07/29 05:16:50;;;;;;;1.83;0.98;;;19.50;99.90;;;;;;4999635;28;20026;-84
2022/07/29 05:19:17;;;;;;;2.20;0.98;;;19.60;99.90;;;;;;4998519;28;20113;-84
2022/07/29 05:21:44;;;;;;;3.22;1.52;;;19.60;99.90;;;;;;5000938;28;20033;-84
2022/07/29 05:24:10;;;;;;;1.88;0.90;;;19.50;99.90;;;;;;4998264;28;20058;-85
2022/07/29 05:26:36;;;;;;;2.28;1.17;;;19.60;99.90;;;;;;5001910;28;20026;-84
2022/07/29 05:29:01;;;;;;;2.03;0.95;;;19.50;99.90;;;;;;4998693;28;20030;-84
2022/07/29 05:31:27;;;;;;;2.70;1.20;;;19.50;99.90;;;;;;4998479;28;20030;-84
2022/07/29 05:33:53;;;;;;;2.28;1.00;;;19.70;99.90;;;;;;4997867;28;20062;-83
2022/07/29 05:36:19;;;;;;;2.60;1.10;;;19.70;99.90;;;;;;4998413;28;20022;-84
2022/07/29 05:38:44;;;;;;;2.72;1.08;;;19.70;99.90;;;;;;4980423;28;20026;-84
2022/07/29 05:41:10;;;;;;;2.83;1.13;;;19.80;99.90;;;;;;4981065;28;20491;-84
2022/07/29 05:43:36;;;;;;;2.65;1.10;;;19.70;99.90;;;;;;4985930;28;20031;-84
2022/07/29 05:46:02;;;;;;;2.85;1.60;;;19.80;99.90;;;;;;4984206;28;20026;-84
2022/07/29 05:48:27;;;;;;;2.33;1.17;;;19.90;99.90;;;;;;4999578;28;20048;-85
2022/07/29 05:50:53;;;;;;;2.45;1.02;;;20.00;99.90;;;;;;5004040;28;20030;-84
2022/07/29 05:53:19;;;;;;;2.28;1.00;;;20.10;99.90;;;;;;4981946;28;20034;-84
2022/07/29 05:55:44;;;;;;;1.70;0.93;;;20.10;99.90;;;;;;5007361;28;20026;-84
2022/07/29 05:58:10;;;;;;;1.90;0.90;;;20.20;99.90;;;;;;4988190;28;20084;-85
2022/07/29 06:00:36;;;;;;;1.95;1.05;;;20.20;99.90;;;;;;4985986;28;20019;-83
2022/07/29 06:03:01;;;;;;;1.23;0.65;;;20.30;99.90;;;;;;5002079;28;20502;-84
2022/07/29 06:05:27;;;;;;;1.67;0.80;;;20.40;99.90;;;;;;5003352;28;20046;-84
2022/07/29 06:07:53;;;;;;;1.27;0.73;;;20.50;99.90;;;;;;4984878;28;20038;-84
2022/07/29 06:10:19;;;;;;;1.65;0.80;;;20.50;99.90;;;;;;4998671;28;20042;-84
2022/07/29 06:12:44;;;;;;;1.48;0.65;;;20.50;99.90;;;;;;4996946;28;20034;-84
2022/07/29 06:15:10;;;;;;;1.27;0.63;;;20.60;99.90;;;;;;4980762;28;20041;-84
2022/07/29 06:17:36;;;;;;;1.48;0.60;;;20.60;99.90;;;;;;4983475;28;20113;-86
2022/07/29 06:20:02;;;;;;;2.90;0.80;;;20.60;99.90;;;;;;5000165;28;20072;-84
2022/07/29 06:22:28;;;;;;;1.42;0.60;;;20.50;99.90;;;;;;4993841;28;20610;-85
2022/07/29 06:24:54;;;;;;;2.45;0.75;;;20.60;99.90;;;;;;4981854;28;20026;-85
2022/07/29 06:27:20;;;;;;;2.00;0.77;;;20.80;99.90;;;;;;4980112;28;20033;-86
2022/07/29 06:29:45;;;;;;;1.30;0.60;;;20.90;99.90;;;;;;5001068;28;20037;-85
2022/07/29 06:32:11;;;;;;;1.20;0.50;;;21.00;99.90;;;;;;4978344;28;20030;-85
2022/07/29 06:34:37;;;;;;;1.63;0.60;;;21.20;99.90;;;;;;4997902;28;20037;-85
2022/07/29 06:37:11;;;;;;;1.05;0.50;;;21.30;99.90;;;;;;4977361;28;20141;-85
2022/07/29 06:39:37;;;;;;;1.45;0.50;;;21.30;99.90;;;;;;4980059;28;20707;-85
2022/07/29 06:42:06;;;;;;;1.17;0.50;;;21.50;99.90;;;;;;4978813;28;20022;-85
2022/07/29 06:44:35;;;;;;;1.58;0.70;;;21.60;99.90;;;;;;4997503;28;20418;-85
2022/07/29 06:47:02;;;;;;;1.73;0.70;;;21.50;99.90;;;;;;4995057;28;20026;-85
2022/07/29 06:49:28;;;;;;;1.55;0.90;;;21.70;99.90;;;;;;4994761;28;20418;-85
2022/07/29 06:51:54;;;;;;;1.73;0.63;;;21.70;99.90;;;;;;4977634;28;20046;-85
2022/07/29 06:54:21;;;;;;;1.33;0.60;;;21.70;99.90;;;;;;4978789;28;20026;-85
2022/07/29 06:56:47;;;;;;;1.80;0.88;;;21.70;99.90;;;;;;4994564;28;20030;-85
2022/07/29 06:59:13;;;;;;;2.92;0.73;;;21.70;99.90;;;;;;4995879;28;20045;-85
2022/07/29 07:01:41;;;;;;;1.40;0.80;;;21.80;99.90;;;;;;4977025;28;20026;-85
2022/07/29 07:04:08;;;;;;;2.08;1.08;;;21.80;99.90;;;;;;4973259;28;20518;-87
2022/07/29 07:06:35;;;;;;;1.95;0.80;;;21.70;99.90;;;;;;4991440;23;20049;-92
2022/07/29 07:09:01;;;;;;;1.85;0.77;;;21.70;99.90;;;;;;4974971;28;20391;-90
2022/07/29 07:11:27;;;;;;;1.73;0.70;;;21.70;99.90;;;;;;4954792;28;20180;-91
2022/07/29 07:13:54;;;;;;;1.73;0.85;;;21.70;99.90;;;;;;4956243;28;20031;-90
2022/07/29 07:16:28;;;;;;;2.08;0.90;;;21.70;99.90;;;;;;4961469;28;20110;-91
2022/07/29 07:19:00;;;;;;;2.75;0.85;;;21.90;99.90;;;;;;4953940;28;20054;-88
2022/07/29 07:21:28;;;;;;;1.92;0.90;;;22.00;99.90;;;;;;4966290;28;20109;-89
2022/07/29 07:24:10;;;;;;;2.35;1.00;;;22.20;99.90;;;;;;4977783;28;20020;-88
2022/07/29 07:26:39;;;;;;;2.00;1.00;;;22.40;99.90;;;;;;4973211;28;20122;-85
2022/07/29 07:29:17;;;;;;;1.85;0.90;;;22.30;99.90;;;;;;4976493;28;20372;-88
2022/07/29 07:32:20;;;;;;;;;;;;;;;;;;;;;
2022/07/29 07:34:43;;;;;;;2.10;0.82;;;22.40;99.90;;;;;;4975952;28;20179;-88
2022/07/29 07:39:56;;;;;;;2.53;1.00;;;22.30;99.90;;;;;;4967053;28;20030;-87
2022/07/29 07:42:22;;;;;;;2.25;1.13;;;22.30;99.90;;;;;;4977285;28;20026;-87
2022/07/29 07:44:50;;;;;;;2.92;1.27;;;22.20;99.90;;;;;;4974673;28;20027;-87
2022/07/29 07:47:24;;;;;;;3.35;1.50;;;22.20;99.90;;;;;;4955710;28;20034;-87
2022/07/29 07:49:51;;;;;;;4.03;1.45;;;22.40;99.90;;;;;;4957275;28;20038;-86
2022/07/29 07:52:18;;;;;;;2.65;1.35;;;22.80;99.90;;;;;;4980834;28;20022;-86
2022/07/29 07:54:47;;;;;;;1.65;1.00;;;22.80;99.90;;;;;;4970024;28;20558;-86
2022/07/29 07:57:13;;;;;;;2.25;1.25;;;23.00;99.90;;;;;;4976719;28;20050;-87
2022/07/29 07:59:39;;;;;;;2.40;1.25;;;23.20;99.90;;;;;;4957886;28;20065;-86
2022/07/29 08:02:06;;;;;;;2.28;1.08;;;23.20;99.90;;;;;;4958880;28;20076;-87
2022/07/29 08:04:31;;;;;;;2.75;1.20;;;23.30;99.90;;;;;;4951141;28;20027;-87
2022/07/29 08:06:58;;;;;;;2.65;1.00;;;23.30;99.90;;;;;;4952581;28;20492;-87
2022/07/29 08:09:24;;;;;;;2.72;1.20;;;23.50;99.90;;;;;;4956211;28;20019;-86
2022/07/29 08:11:51;;;;;;;2.92;1.40;;;23.80;99.90;;;;;;4958778;28;20387;-87
2022/07/29 08:14:17;;;;;;;1.88;0.90;;;24.00;99.90;;;;;;4973649;28;20022;-86
2022/07/29 08:16:45;;;;;;;3.25;1.17;;;24.20;99.90;;;;;;4955975;28;20483;-86
2022/07/29 08:19:38;;;;;;;;;;;;;;;;;;;;;
2022/07/29 08:22:18;;;;;;;;;;;;;;;;;;;;;
2022/07/29 08:24:45;;;;;;;2.25;1.13;;;24.20;99.90;;;;;;4969325;28;20019;-86
2022/07/29 08:27:31;;;;;;;5.20;1.10;;;24.40;99.90;;;;;;4957254;28;20532;-86
2022/07/29 08:30:00;;;;;;;2.42;1.13;;;24.70;99.90;;;;;;4971894;28;20616;-88
2022/07/29 08:32:28;;;;;;;3.38;1.13;;;25.00;99.90;;;;;;4954411;28;20395;-86
2022/07/29 08:34:53;;;;;;;2.05;0.98;;;25.10;99.90;;;;;;4971955;28;20019;-85
2022/07/29 08:37:19;;;;;;;2.70;1.30;;;25.10;99.90;;;;;;4950141;28;20038;-86
2022/07/29 08:39:45;;;;;;;3.25;1.30;;;25.40;99.90;;;;;;4954385;28;20027;-85
2022/07/29 08:42:11;;;;;;;2.72;1.40;;;25.60;99.90;;;;;;4959961;28;20663;-85
2022/07/29 08:44:56;;;;;;;2.63;1.30;;;25.70;99.90;;;;;;4964223;28;20752;-86
2022/07/29 08:47:23;;;;;;;2.70;1.23;;;25.70;99.90;;;;;;4956953;28;20047;-86
2022/07/29 08:49:49;;;;;;;2.13;1.17;;;25.70;99.90;;;;;;4954557;28;20250;-86
2022/07/29 08:52:16;;;;;;;4.97;1.10;;;25.60;99.90;;;;;;4976363;28;20046;-83
2022/07/29 08:54:44;;;;;;;2.05;0.90;;;25.60;99.90;;;;;;4952672;28;20102;-86
2022/07/29 08:57:19;;;;;;;3.05;1.23;;;25.90;99.90;;;;;;4955880;28;20042;-86
2022/07/29 08:59:49;;;;;;;2.70;1.20;;;26.00;99.90;;;;;;4950594;28;20126;-85
2022/07/29 09:02:22;;;;;;;2.63;1.00;;;26.30;99.90;;;;;;4954993;28;20015;-86
2022/07/29 09:04:53;;;;;;;2.65;1.13;;;26.50;99.90;;;;;;4953749;28;20030;-87
2022/07/29 09:07:23;;;;;;;2.75;1.40;;;26.70;99.90;;;;;;4976508;28;20027;-87
2022/07/29 09:09:59;;;;;;;2.38;1.00;;;26.80;99.90;;;;;;4972091;28;20054;-87
2022/07/29 09:12:25;;;;;;;3.33;1.20;;;27.00;99.90;;;;;;4957276;28;20034;-86
2022/07/29 09:14:51;;;;;;;2.83;1.35;;;26.80;99.90;;;;;;4960459;28;20118;-87
2022/07/29 09:17:47;;;;;;;4.72;1.10;;;27.00;99.90;;;;;;4966944;28;20050;-87
2022/07/29 09:23:22;;;;;;;1.85;1.08;;;27.50;99.90;;;;;;4965612;28;20034;-87
2022/07/29 09:25:48;;;;;;;2.75;1.30;;;27.60;99.50;;;;;;4977241;28;20459;-88
2022/07/29 09:28:16;;;;;;;2.95;1.45;;;27.90;99.40;;;;;;4977459;28;20031;-88
2022/07/29 09:31:05;;;;;;;3.67;1.33;;;27.70;99.50;;;;;;4957544;28;20038;-88
2022/07/29 09:34:28;;;;;;;1.85;1.08;;;28.00;99.90;;;;;;4976671;28;20043;-87
2022/07/29 09:36:55;;;;;;;2.42;1.30;;;28.10;99.50;;;;;;4877026;28;20046;-87
2022/07/29 09:39:34;;;;;;;2.20;1.00;;;28.30;99.10;;;;;;4971471;28;20122;-88
2022/07/29 09:42:02;;;;;;;3.38;1.20;;;28.60;99.50;;;;;;4963413;28;20030;-88
2022/07/29 09:44:45;;;;;;;2.45;1.20;;;28.50;98.20;;;;;;4965691;28;20066;-87
2022/07/29 09:47:12;;;;;;;2.70;1.20;;;28.80;98.10;;;;;;4964111;28;20029;-86
2022/07/29 09:49:59;;;;;;;3.03;1.35;;;28.50;98.20;;;;;;4962246;28;20026;-87
2022/07/29 09:52:26;;;;;;;2.63;1.30;;;28.60;98.70;;;;;;4980426;28;20023;-87
2022/07/29 09:54:53;;;;;;;2.10;1.08;;;28.80;98.80;;;;;;4953645;28;20027;-87
2022/07/29 09:57:28;;;;;;;3.55;1.23;;;29.30;98.80;;;;;;4982339;28;20058;-88
2022/07/29 10:00:01;;;;;;;2.70;1.10;;;29.30;98.60;;;;;;4991423;28;20034;-87
2022/07/29 10:02:38;;;;;;;2.58;1.23;;;29.30;97.60;;;;;;4966937;28;20050;-86
2022/07/29 10:05:06;;;;;;;2.33;1.17;;;29.30;97.10;;;;;;4956567;28;20223;-85
2022/07/29 10:07:48;;;;;;;3.10;1.25;;;29.00;97.30;;;;;;4973352;28;20043;-86
2022/07/29 10:10:28;;;;;;;3.92;1.50;;;28.90;98.60;;;;;;4972786;28;20545;-86
2022/07/29 10:12:57;;;;;;;2.17;1.20;;;29.20;97.10;;;;;;4977740;28;20476;-86
2022/07/29 10:15:28;;;;;;;2.28;1.10;;;29.10;97.60;;;;;;4941025;28;20059;-85
2022/07/29 10:17:58;;;;;;;4.10;1.50;;;29.30;98.00;;;;;;4958494;28;20513;-86
2022/07/29 10:20:28;;;;;;;2.42;1.30;;;29.20;97.10;;;;;;4961114;28;20046;-86
2022/07/29 10:22:55;;;;;;;3.38;1.23;;;28.80;97.80;;;;;;4973396;28;20097;-86
2022/07/29 10:25:23;;;;;;;2.03;1.13;;;28.40;98.00;;;;;;4956794;28;20034;-86
2022/07/29 10:27:51;;;;;;;3.33;1.30;;;28.30;97.80;;;;;;4965858;28;20061;-86
2022/07/29 10:30:18;;;;;;;2.33;1.10;;;28.30;98.60;;;;;;4963218;28;20102;-86
2022/07/29 10:32:57;;;;;;;2.10;1.10;;;28.60;97.80;;;;;;4969976;28;20029;-86
2022/07/29 10:35:39;;;;;;;2.55;1.30;;;28.60;97.70;;;;;;4952422;28;20139;-86
2022/07/29 10:38:29;;;;;;;2.45;1.20;;;28.50;97.40;;;;;;4958008;28;20031;-86
2022/07/29 10:44:12;;;;;;;2.35;1.20;;;27.80;98.30;;;;;;4977320;28;20034;-86
2022/07/29 10:47:03;;;;;;;1.77;1.20;;;27.60;98.30;;;;;;4918395;28;20031;-86
2022/07/29 10:49:38;;;;;;;2.38;1.30;;;27.40;98.80;;;;;;4974174;28;20130;-85
2022/07/29 10:52:10;;;;;;;2.50;1.40;;;27.00;99.00;;;;;;4956494;28;20118;-86
2022/07/29 10:54:52;;;;;;;3.55;1.33;;;26.80;98.70;;;;;;4971765;28;20030;-87
2022/07/29 10:57:49;;;;;;;;;;;;;;;;;;;;;
2022/07/29 11:00:26;;;;;;;3.15;1.40;;;26.60;99.10;;;;;;4969088;28;20042;-86
2022/07/29 11:04:09;;;;;;;3.58;1.58;;;26.40;98.50;;;;;;4954371;28;20026;-85
2022/07/29 11:07:12;;;;;;;4.35;1.58;;;26.30;99.00;;;;;;4831079;29;20029;-85
2022/07/29 11:10:22;;;;;;;3.10;1.15;;;25.50;99.60;;;;;;4824620;29;20025;-86
2022/07/29 11:12:51;;;;;;;1.80;0.80;;;24.40;99.00;;;;;;4911175;29;20389;-86
2022/07/29 11:15:21;;;;;;;3.72;1.00;;;23.50;99.60;;;;;;4916865;28;20054;-81
2022/07/29 11:18:00;;;;;;;2.45;1.30;;;22.80;99.90;;;;;;4980226;28;20034;-81
2022/07/29 11:20:44;;;;;;;4.45;1.38;;;22.10;99.90;;;;;;4973003;28;20402;-85
2022/07/29 11:23:29;;;;;;;4.28;1.92;;;;;;;;;;4970951;28;20785;-82
2022/07/29 11:26:23;;;;;;;3.38;1.10;;;19.80;99.90;;;;;;4979163;28;20038;-80
2022/07/29 11:29:02;;;;;;;1.52;0.80;;;19.10;99.90;;;;;;4972883;28;20027;-80
2022/07/29 11:31:35;;;;;;;3.90;1.38;;;18.80;99.90;;;;;;4977801;28;20097;-81
2022/07/29 11:34:20;;;;;;;3.25;1.48;;;18.70;99.90;;;;;;4978140;28;20050;-81
2022/07/29 11:37:12;;;;;;;2.85;1.30;;;18.80;99.90;;;;;;4974407;28;20052;-80
2022/07/29 11:40:08;;;;;;;2.78;1.52;;;19.00;99.90;;;;;;4951381;28;20470;-82
2022/07/29 11:42:34;;;;;;;3.80;1.50;;;19.20;99.90;;;;;;4978065;28;20057;-81
2022/07/29 11:45:07;;;;;;;3.67;1.30;;;19.40;99.90;;;;;;4957716;28;20030;-81
2022/07/29 11:47:38;;;;;;;7.80;0.90;;;19.50;99.90;;;;;;4961738;28;20037;-81
2022/07/29 11:50:13;;;;;;;2.85;1.27;;;19.60;99.90;;;;;;4957187;28;20146;-81
2022/07/29 11:52:46;;;;;;;2.97;0.95;;;19.60;99.90;;;;;;4974478;28;20062;-81
2022/07/29 11:55:22;;;;;;;2.13;1.00;;;19.70;99.90;;;;;;4975293;28;20136;-81
2022/07/29 11:57:52;;;;;;;3.55;1.30;;;19.50;99.90;;;;;;4975956;28;20026;-80
2022/07/29 12:00:24;;;;;;;3.22;1.30;;;19.60;99.90;;;;;;4960874;28;20019;-80
2022/07/29 12:02:50;;;;;;;2.78;1.15;;;19.70;99.90;;;;;;4983789;28;20031;-81
2022/07/29 12:05:16;;;;;;;2.13;1.00;;;19.80;99.90;;;;;;4972720;28;20019;-81
2022/07/29 12:07:42;;;;;;;2.28;0.68;;;19.90;99.90;;;;;;4989046;28;20066;-81
2022/07/29 12:10:08;;;;;;;1.80;0.75;;;19.90;99.90;;;;;;4983808;28;20027;-81
2022/07/29 12:12:35;;;;;;;1.92;0.63;;;19.90;99.90;;;;;;4973234;28;20098;-84
2022/07/29 12:15:12;;;;;;;2.50;0.90;;;19.80;99.90;;;;;;4949763;28;20038;-84
2022/07/29 12:17:39;;;;;;;1.63;0.60;;;19.80;99.90;;;;;;4951774;28;20109;-83
2022/07/29 12:20:05;;;;;;;2.45;0.77;;;19.90;99.90;;;;;;4969546;28;20019;-83
2022/07/29 12:22:37;;;;;;;1.63;0.70;;;19.80;99.90;;;;;;4967775;28;20027;-84
2022/07/29 12:25:07;;;;;;;;;;;19.80;99.90;;;;;;4960322;28;20023;-84
2022/07/29 12:27:33;;;;;;;1.95;0.70;;;19.80;99.90;;;;;;4952596;28;20543;-82
2022/07/29 12:30:08;;;;;;;0.95;0.60;;;19.80;99.90;;;;;;4953935;28;20081;-83
2022/07/29 12:32:45;;;;;;;2.35;0.82;;;19.90;99.90;;;;;;4952843;28;20026;-82
2022/07/29 12:35:40;;;;;;;1.98;1.00;;;20.00;99.90;;;;;;4954626;28;20026;-82
2022/07/29 12:38:42;;;;;;;1.77;1.00;;;20.10;99.90;;;;;;4949620;28;20113;-84
2022/07/29 12:41:27;;;;;;;3.50;1.20;;;20.20;99.90;;;;;;4971020;28;20039;-85
2022/07/29 12:47:15;;;;;;;2.40;1.13;;;20.20;99.90;;;;;;4969795;28;20023;-85
2022/07/29 12:49:53;;;;;;;2.50;0.88;;;20.30;99.90;;;;;;4953783;28;20031;-85
2022/07/29 12:53:01;;;;;;;3.47;0.88;;;20.30;99.90;;;;;;4954018;28;20030;-85
2022/07/29 12:55:59;;;;;;;2.15;0.80;;;20.30;99.90;;;;;;4933655;28;20039;-85
2022/07/29 12:58:30;;;;;;;1.90;0.90;;;20.30;99.90;;;;;;4954202;28;20491;-83
2022/07/29 13:01:19;;;;;;;1.95;0.90;;;20.40;99.90;;;;;;4957935;28;20070;-85
2022/07/29 13:03:54;;;;;;;3.47;1.15;;;20.40;99.90;;;;;;4952442;28;20026;-84
2022/07/29 13:06:40;;;;;;;2.42;1.13;;;20.40;99.90;;;;;;4969438;28;20479;-84
2022/07/29 13:09:15;;;;;;;2.92;1.10;;;20.50;99.90;;;;;;5002266;23;20972;-84
2022/07/29 13:11:50;;;;;;;2.15;1.00;;;20.60;99.90;;;;;;4961336;28;20023;-84
2022/07/29 13:14:36;;;;;;;3.35;1.20;;;20.60;99.90;;;;;;4954115;28;20030;-84
2022/07/29 13:17:11;;;;;;;1.92;0.93;;;20.50;99.90;;;;;;4961543;28;20031;-84
2022/07/29 13:19:41;;;;;;;2.30;1.15;;;20.40;99.90;;;;;;4977319;28;20072;-84
2022/07/29 13:22:20;;;;;;;2.60;1.20;;;20.20;99.90;;;;;;4980044;28;20027;-82
2022/07/29 13:24:53;;;;;;;3.92;1.65;;;20.20;99.90;;;;;;4977392;28;20037;-84
2022/07/29 13:27:22;;;;;;;4.35;1.45;;;20.20;99.90;;;;;;4963426;28;20023;-83
2022/07/29 13:29:51;;;;;;;4.07;2.08;;;20.10;99.90;;;;;;4976784;28;20458;-83